Terminal Aerodrome Forecast
Issued by NWS

Home | Current Version | Previous Version | Text Only | Print | Product List | Glossary On
Versions: 1 2 3 4 5 6 7 8 9 10 11 12 13 14 15 16 17 18 19 20 21 22 23 24 25 26 27 28 29 30 31 32
000
FTPQ31 PGUM 212331
TAFGWT
TAF
PGWT 212331Z 2200/2224 21015G23KT P6SM VCSH FEW016 SCT060 BKN100
     FM220600 19011G22KT P6SM VCSH FEW015 SCT130
     FM221500 16011KT P6SM VCSH SCT015 SCT130=

USA.gov is the U.S. government's official web portal to all federal, state and local government web resources and services.